Time;durP1;ratioP1;P1;durP2;ratioP2;P2;SDS_P1;SDS_P2;PMS_P1;PMS_P2;Temp;Humidity;BMP_temperature;BMP_pressure;BME280_temperature;BME280_humidity;BME280_pressure;Samples;Min_cycle;Max_cycle;Signal;HPM_P1;HPM_P2
2021/07/02 00:00:10;;;;;;;11.53;7.20;;;;;;;21.01;73.85;100304.38;1699444;79;21693;31
2021/07/02 00:02:39;;;;;;;10.60;8.05;;;;;;;20.99;74.05;100304.57;1672474;79;21504;-76
2021/07/02 00:05:08;;;;;;;13.70;7.45;;;;;;;20.97;74.04;100304.41;1709037;80;20974;-76
2021/07/02 00:07:35;;;;;;;12.05;7.30;;;;;;;20.94;73.75;100300.22;1715108;79;20948;-79
2021/07/02 00:10:03;;;;;;;11.55;8.03;;;;;;;20.91;74.07;100296.06;1722750;78;20916;-77
2021/07/02 00:12:30;;;;;;;15.05;9.23;;;;;;;20.88;74.24;100295.07;1677768;82;21675;-74
2021/07/02 00:14:59;;;;;;;19.42;9.33;;;;;;;20.85;74.33;100299.41;1705081;79;20930;-80
2021/07/02 00:17:26;;;;;;;11.83;8.67;;;;;;;20.81;74.44;100301.22;1745144;79;20901;-75
2021/07/02 00:19:53;;;;;;;14.05;8.38;;;;;;;20.77;74.71;100302.07;1729691;79;20916;-76
2021/07/02 00:22:24;;;;;;;14.95;9.40;;;;;;;20.72;74.83;100300.41;1761239;80;21868;31
2021/07/02 00:24:55;;;;;;;8.30;7.42;;;;;;;20.66;74.72;100297.07;1728003;79;21117;31
2021/07/02 00:27:22;;;;;;;12.35;9.05;;;;;;;20.61;74.68;100296.72;1724658;79;20833;-72
2021/07/02 00:29:55;;;;;;;8.68;7.40;;;;;;;20.56;74.76;100293.69;1715114;79;21448;31
2021/07/02 00:32:22;;;;;;;13.90;8.78;;;;;;;20.50;74.73;100297.86;1746808;78;20926;-78
2021/07/02 00:34:50;;;;;;;12.35;7.87;;;;;;;20.45;75.15;100295.69;1760038;79;20903;-79
2021/07/02 00:37:19;;;;;;;11.48;7.83;;;;;;;20.40;75.48;100293.17;1758855;81;21138;-77
2021/07/02 00:39:46;;;;;;;10.72;7.10;;;;;;;20.34;75.74;100290.65;1733232;81;20898;-77
2021/07/02 00:42:21;;;;;;;16.48;8.50;;;;;;;20.30;75.83;100293.33;1707546;79;20860;-81
2021/07/02 00:44:48;;;;;;;12.35;8.20;;;;;;;20.27;75.91;100297.63;1724569;79;21515;-78
2021/07/02 00:47:17;;;;;;;12.75;8.18;;;;;;;20.22;76.07;100295.46;1759664;79;21605;-77
2021/07/02 00:49:45;;;;;;;16.20;8.00;;;;;;;20.18;76.27;100295.45;1743387;78;21126;-76
2021/07/02 00:52:13;;;;;;;10.40;8.30;;;;;;;20.16;76.35;100293.95;1732396;77;20903;-72
2021/07/02 00:54:44;;;;;;;12.68;7.58;;;;;;;20.11;76.59;100301.59;1721606;79;20895;-72
2021/07/02 00:57:11;;;;;;;11.65;7.80;;;;;;;20.08;76.68;100306.24;1702744;81;21958;-73
2021/07/02 00:59:43;;;;;;;11.60;7.97;;;;;;;20.06;76.65;100315.39;1683730;79;20984;31
2021/07/02 01:02:11;;;;;;;11.63;8.03;;;;;;;20.02;76.95;100309.55;1694471;79;21149;-75
2021/07/02 01:04:39;;;;;;;13.85;7.53;;;;;;;20.00;76.91;100312.86;1717681;79;20941;-73
2021/07/02 01:07:09;;;;;;;10.65;8.08;;;;;;;19.97;76.76;100307.87;1705205;80;21537;-72
2021/07/02 01:09:42;;;;;;;12.43;8.05;;;;;;;19.94;76.62;100300.19;1681111;79;21550;-70
2021/07/02 01:12:11;;;;;;;10.20;7.10;;;;;;;19.93;76.49;100307.03;1743713;79;20881;-75
2021/07/02 01:14:39;;;;;;;8.78;6.70;;;;;;;19.92;76.47;100312.85;1730174;79;21684;-69
2021/07/02 01:17:07;;;;;;;14.40;7.17;;;;;;;19.93;76.63;100303.03;1688581;81;20919;-75
2021/07/02 01:19:49;;;;;;;11.35;6.33;;;;;;;19.94;76.67;100297.53;1738016;79;20908;-72
2021/07/02 01:22:20;;;;;;;7.50;6.08;;;;;;;19.96;76.59;100298.70;1732729;79;21368;-74
2021/07/02 01:24:48;;;;;;;11.57;6.62;;;;;;;19.98;76.39;100297.55;1697827;80;21314;-76
2021/07/02 01:27:15;;;;;;;9.28;5.92;;;;;;;20.02;76.13;100292.24;1736379;79;21502;-73
2021/07/02 01:29:44;;;;;;;9.53;5.75;;;;;;;20.07;75.49;100281.11;1726498;78;20985;-75
2021/07/02 01:32:12;;;;;;;8.75;6.87;;;;;;;20.11;75.44;100281.13;1673637;81;20922;-75
2021/07/02 01:34:40;;;;;;;8.25;5.70;;;;;;;20.16;75.22;100277.47;1667598;81;21078;-72
2021/07/02 01:37:08;;;;;;;13.50;7.30;;;;;;;20.22;75.53;100278.16;1709422;79;20958;-74
2021/07/02 01:39:39;;;;;;;12.03;6.90;;;;;;;20.29;75.35;100277.00;1695667;79;21189;-75
2021/07/02 01:42:09;;;;;;;14.10;6.90;;;;;;;20.37;74.98;100281.53;1713972;79;20963;-73
2021/07/02 01:44:38;;;;;;;12.68;6.37;;;;;;;20.43;75.08;100287.50;1690732;80;20984;-70
2021/07/02 01:47:11;;;;;;;13.00;6.62;;;;;;;20.44;74.70;100285.19;1727018;80;21416;31
2021/07/02 01:49:40;;;;;;;11.00;6.72;;;;;;;20.49;74.22;100287.68;1679357;79;20889;-76
2021/07/02 01:52:08;;;;;;;10.48;6.87;;;;;;;20.51;74.08;100291.52;1714648;79;21482;-74
2021/07/02 01:54:34;;;;;;;10.68;6.97;;;;;;;20.53;73.62;100286.04;1700378;79;20940;-75
2021/07/02 01:57:10;;;;;;;11.12;6.78;;;;;;;20.52;73.79;100295.02;1668647;80;21378;31
2021/07/02 01:59:40;;;;;;;13.18;7.40;;;;;;;20.49;73.61;100283.69;1720130;78;21004;-77
2021/07/02 02:02:08;;;;;;;11.48;6.25;;;;;;;20.46;74.12;100285.36;1706201;79;20943;-79
2021/07/02 02:04:36;;;;;;;10.43;7.17;;;;;;;20.44;74.18;100286.52;1750551;78;21115;-77
2021/07/02 02:07:03;;;;;;;13.95;8.05;;;;;;;20.44;74.10;100294.52;1750094;78;20939;-77
2021/07/02 02:09:30;;;;;;;8.20;6.40;;;;;;;20.46;74.17;100304.00;1736314;78;21373;-78
2021/07/02 02:12:00;;;;;;;8.90;7.28;;;;;;;20.47;73.99;100301.66;1753117;79;20913;-74
2021/07/02 02:14:29;;;;;;;16.15;8.58;;;;;;;20.47;74.00;100301.66;1693255;79;20879;-72
2021/07/02 02:16:59;;;;;;;14.65;7.97;;;;;;;20.47;74.10;100312.31;1672178;80;20908;-77
2021/07/02 02:19:27;;;;;;;11.00;6.85;;;;;;;20.46;73.58;100304.52;1680099;81;20940;-74
2021/07/02 02:21:53;;;;;;;9.83;6.95;;;;;;;20.43;72.93;100303.48;1703267;79;20880;-74
2021/07/02 02:26:58;;;;;;;14.20;7.72;;;;;;;20.43;72.54;100288.36;1739017;78;20841;-73
2021/07/02 02:29:31;;;;;;;8.03;7.10;;;;;;;20.42;72.60;100288.52;1715118;80;21067;31
2021/07/02 02:32:01;;;;;;;9.43;6.95;;;;;;;20.40;72.25;100292.66;1673292;79;20949;31
2021/07/02 02:34:29;;;;;;;11.73;7.30;;;;;;;20.40;71.81;100289.17;1712480;79;20932;-77
2021/07/02 02:36:56;;;;;;;11.08;7.15;;;;;;;20.39;71.66;100293.67;1677362;80;20983;-68
2021/07/02 02:39:23;;;;;;;16.35;7.97;;;;;;;20.40;71.90;100300.66;1694056;82;20988;-77
2021/07/02 02:41:51;;;;;;;13.60;8.53;;;;;;;20.42;72.79;100297.33;1728164;79;21520;31
2021/07/02 02:44:26;;;;;;;12.10;8.65;;;;;;;20.45;73.30;100302.35;1707665;80;20935;-80
2021/07/02 02:46:54;;;;;;;19.05;7.97;;;;;;;20.46;73.46;100301.34;1668754;81;20948;-73
2021/07/02 02:49:22;;;;;;;14.60;7.90;;;;;;;20.47;72.04;100286.19;1738056;78;20929;-73
2021/07/02 02:51:51;;;;;;;7.55;6.22;;;;;;;20.48;72.29;100283.87;1729827;80;20871;31
2021/07/02 02:54:18;;;;;;;6.70;5.53;;;;;;;20.51;72.28;100279.53;1672536;82;21151;-77
2021/07/02 02:57:07;;;;;;;9.83;7.22;;;;;;;20.56;71.05;100287.03;1712876;79;21017;31
2021/07/02 02:59:37;;;;;;;11.35;6.12;;;;;;;20.61;71.64;100282.91;1679872;80;21458;-72
2021/07/02 03:02:04;;;;;;;11.45;6.90;;;;;;;20.66;71.28;100297.07;1707903;80;20976;-76
2021/07/02 03:04:35;;;;;;;10.30;6.40;;;;;;;20.70;71.11;100295.75;1726847;79;20953;-76
2021/07/02 03:07:05;;;;;;;15.65;8.03;;;;;;;20.75;71.53;100296.58;1745653;80;21094;-77
2021/07/02 03:09:33;;;;;;;13.88;7.37;;;;;;;20.77;71.74;100297.25;1730213;78;21209;-76
2021/07/02 03:12:01;;;;;;;10.32;7.35;;;;;;;20.80;71.69;100292.91;1745114;78;20912;-77
2021/07/02 03:14:29;;;;;;;14.63;7.62;;;;;;;20.80;71.67;100287.06;1745295;78;21484;-74
2021/07/02 03:16:57;;;;;;;18.02;8.23;;;;;;;20.81;72.00;100294.08;1741147;78;20888;-75
2021/07/02 03:19:26;;;;;;;16.15;8.73;;;;;;;20.81;72.30;100288.75;1716823;79;21212;-76
2021/07/02 03:21:55;;;;;;;17.30;9.08;;;;;;;20.83;72.13;100301.89;1741966;80;20873;-78
2021/07/02 03:24:24;;;;;;;14.80;8.53;;;;;;;20.83;71.99;100298.75;1756609;79;20963;-78
2021/07/02 03:26:52;;;;;;;10.80;8.45;;;;;;;20.82;72.16;100295.73;1748714;79;21252;-78
2021/07/02 03:29:21;;;;;;;14.58;9.75;;;;;;;20.81;72.40;100287.42;1755220;80;20932;-77
2021/07/02 03:31:50;;;;;;;15.50;9.78;;;;;;;20.82;72.47;100299.73;1709510;79;21539;-77
2021/07/02 03:34:17;;;;;;;16.15;10.28;;;;;;;20.83;72.73;100298.75;1723279;79;21468;-73
2021/07/02 03:36:45;;;;;;;16.15;9.88;;;;;;;20.83;72.69;100302.75;1739250;78;20868;-78
2021/07/02 03:39:12;;;;;;;14.30;9.68;;;;;;;20.83;72.40;100301.41;1697720;79;20963;-79
2021/07/02 03:41:39;;;;;;;16.55;11.40;;;;;;;20.86;72.27;100296.24;1754884;78;20870;-75
2021/07/02 03:44:06;;;;;;;14.03;10.90;;;;;;;20.88;72.15;100299.07;1713324;78;21070;-79
2021/07/02 03:46:33;;;;;;;17.42;9.88;;;;;;;20.93;72.16;100296.41;1741636;79;20925;-80
2021/07/02 03:49:03;;;;;;;18.10;10.93;;;;;;;20.99;72.15;100303.74;1723974;79;20930;31
2021/07/02 03:51:32;;;;;;;19.05;11.10;;;;;;;21.05;72.23;100302.54;1742084;80;20900;31
2021/07/02 03:54:06;;;;;;;15.78;11.55;;;;;;;21.13;72.51;100300.89;1743112;79;21430;31
2021/07/02 03:56:34;;;;;;;15.05;11.90;;;;;;;21.21;72.97;100302.19;1736519;78;21646;-72
2021/07/02 03:59:08;;;;;;;20.57;11.57;;;;;;;21.28;72.73;100299.20;1743837;80;20913;31
2021/07/02 04:01:35;;;;;;;19.55;11.20;;;;;;;21.38;72.67;100301.67;1723864;79;21083;-75
2021/07/02 04:04:05;;;;;;;17.25;11.35;;;;;;;21.47;72.52;100297.50;1712917;80;21593;31
2021/07/02 04:06:41;;;;;;;20.60;11.65;;;;;;;21.57;72.32;100299.17;1715580;79;20944;31
2021/07/02 04:09:08;;;;;;;16.85;11.48;;;;;;;21.71;72.22;100301.11;1676508;81;21362;-75
2021/07/02 04:11:37;;;;;;;21.37;11.43;;;;;;;21.87;72.18;100301.03;1696434;80;20932;-83
2021/07/02 04:14:05;;;;;;;18.30;10.87;;;;;;;22.17;72.05;100299.08;1750783;80;20873;-74
2021/07/02 04:16:32;;;;;;;13.78;10.58;;;;;;;22.60;70.86;100303.50;1737134;80;20881;-80
2021/07/02 04:18:59;;;;;;;15.33;10.73;;;;;;;23.09;69.24;100302.61;1690117;80;21354;-74
2021/07/02 04:21:26;;;;;;;12.00;9.48;;;;;;;23.66;67.44;100310.55;1743922;80;21125;-73
2021/07/02 04:23:54;;;;;;;15.65;9.28;;;;;;;24.21;65.83;100307.02;1758411;78;21385;-69
2021/07/02 04:26:27;;;;;;;21.87;9.15;;;;;;;24.75;63.78;100304.42;1740340;78;20880;31
2021/07/02 04:28:59;;;;;;;15.58;7.42;;;;;;;25.24;62.00;100310.31;1728922;79;20927;31
2021/07/02 04:31:26;;;;;;;16.25;7.95;;;;;;;25.71;59.84;100311.94;1742833;82;20906;-77
2021/07/02 04:33:53;;;;;;;13.55;7.62;;;;;;;26.11;58.30;100317.00;1742999;79;21793;-75
2021/07/02 04:36:23;;;;;;;11.25;7.30;;;;;;;26.47;56.42;100312.64;1708756;79;20892;31
2021/07/02 04:38:53;;;;;;;8.43;6.90;;;;;;;26.84;55.31;100316.36;1679446;79;20908;31
2021/07/02 04:41:20;;;;;;;12.55;7.08;;;;;;;27.22;53.55;100313.06;1705264;77;20947;-78
2021/07/02 04:43:48;;;;;;;8.85;6.87;;;;;;;27.60;52.47;100318.57;1793546;77;21413;-77
2021/07/02 04:46:15;;;;;;;11.93;6.63;;;;;;;27.97;51.33;100312.16;1681728;81;21676;-73
2021/07/02 04:48:43;;;;;;;15.93;7.10;;;;;;;28.35;50.47;100307.80;1718467;81;20891;-78
2021/07/02 04:51:10;;;;;;;12.40;6.25;;;;;;;28.72;49.24;100305.63;1733982;80;20903;-69
2021/07/02 04:53:45;;;;;;;10.60;6.33;;;;;;;29.10;47.95;100303.37;1755842;79;20876;31
2021/07/02 04:56:12;;;;;;;15.55;6.22;;;;;;;29.46;47.18;100309.87;1747812;79;20920;-69
2021/07/02 04:58:56;;;;;;;13.13;7.50;;;;;;;29.78;46.97;100302.98;1761333;79;21820;-74
2021/07/02 05:01:25;;;;;;;19.40;13.58;;;;;;;30.08;47.07;100298.13;1714586;80;21026;-68
2021/07/02 05:03:52;;;;;;;15.23;10.05;;;;;;;30.36;44.83;100305.14;1751264;80;20876;-69
2021/07/02 05:06:18;;;;;;;12.23;7.95;;;;;;;30.63;45.05;100298.51;1754587;81;20899;-70
2021/07/02 05:08:47;;;;;;;27.07;9.03;;;;;;;30.88;43.30;100306.45;1745655;80;21462;-73
2021/07/02 05:11:14;;;;;;;38.28;9.10;;;;;;;31.14;42.81;100294.34;1747755;80;21113;-70
2021/07/02 05:13:44;;;;;;;13.28;5.83;;;;;;;31.40;41.99;100293.86;1703827;79;21020;-77
2021/07/02 05:16:17;;;;;;;10.53;5.50;;;;;;;31.63;41.09;100293.55;1708556;80;21368;-78
2021/07/02 05:18:44;;;;;;;14.80;13.25;;;;;;;31.80;41.35;100297.70;1697712;80;21424;-68
2021/07/02 05:21:20;;;;;;;9.23;5.72;;;;;;;31.97;39.99;100295.91;1694906;80;20924;31
2021/07/02 05:23:47;;;;;;;8.35;5.40;;;;;;;32.19;38.97;100298.77;1640328;80;21260;-74
2021/07/02 05:26:14;;;;;;;13.00;5.53;;;;;;;32.41;38.67;100296.69;1685605;79;20952;-68
2021/07/02 05:28:42;;;;;;;16.10;5.17;;;;;;;32.63;39.08;100296.83;1695529;81;20880;-70
2021/07/02 05:31:16;;;;;;;10.48;4.50;;;;;;;32.85;38.36;100294.20;1704896;82;20911;31
2021/07/02 05:33:43;;;;;;;8.18;3.95;;;;;;;33.05;37.38;100295.05;1704751;82;20860;-70
2021/07/02 05:36:12;;;;;;;7.97;3.85;;;;;;;33.22;37.61;100299.95;1672727;80;20948;-69
2021/07/02 05:38:39;;;;;;;11.53;4.60;;;;;;;33.38;37.75;100294.73;1656733;82;20881;-70
2021/07/02 05:41:06;;;;;;;20.80;4.70;;;;;;;33.55;37.41;100294.66;1684883;79;20995;-69
2021/07/02 05:43:33;;;;;;;7.75;3.98;;;;;;;33.67;36.87;100294.59;1695344;79;20882;-70
2021/07/02 05:46:02;;;;;;;9.73;4.12;;;;;;;33.77;36.36;100295.54;1699569;80;21041;-76
2021/07/02 05:48:29;;;;;;;6.03;3.22;;;;;;;33.93;35.38;100294.33;1668911;80;21270;-71
2021/07/02 05:50:57;;;;;;;7.47;4.22;;;;;;;34.16;35.07;100289.18;1693828;80;20892;-73
2021/07/02 05:53:28;;;;;;;10.65;5.75;;;;;;;34.37;35.51;100290.19;1697258;81;21350;31
2021/07/02 05:55:55;;;;;;;7.30;5.47;;;;;;;34.39;34.81;100283.40;1728177;80;20904;-77
2021/07/02 05:58:25;;;;;;;10.38;6.22;;;;;;;34.25;34.56;100292.53;1741182;79;21051;31
2021/07/02 06:00:53;;;;;;;11.60;6.10;;;;;;;33.97;35.05;100292.23;1697520;80;21114;31
2021/07/02 06:03:23;;;;;;;11.43;7.15;;;;;;;33.61;35.96;100290.97;1705040;78;20999;31
2021/07/02 06:05:51;;;;;;;11.03;7.17;;;;;;;33.28;36.02;100289.96;1715271;80;21351;31
2021/07/02 06:08:25;;;;;;;7.85;7.00;;;;;;;32.99;36.61;100283.81;1736940;79;20952;-74
2021/07/02 06:10:52;;;;;;;11.83;7.28;;;;;;;32.78;38.01;100282.69;1697159;80;20916;-80
2021/07/02 06:13:22;;;;;;;9.10;7.00;;;;;;;32.63;38.13;100277.28;1696109;80;21827;31
2021/07/02 06:15:55;;;;;;;9.90;7.50;;;;;;;32.69;39.05;100280.09;1704788;79;20896;31
2021/07/02 06:18:25;;;;;;;10.25;7.20;;;;;;;32.87;39.17;100280.38;1686049;79;21433;31
2021/07/02 06:21:00;;;;;;;10.28;8.13;;;;;;;33.17;38.34;100282.73;1693377;80;20971;31
2021/07/02 06:23:33;;;;;;;10.38;7.92;;;;;;;33.54;36.85;100276.17;1660399;84;20944;-76
2021/07/02 06:25:58;;;;;;;10.08;7.62;;;;;;;33.92;35.82;100278.55;1676777;79;21225;-83
2021/07/02 06:28:24;;;;;;;10.82;8.23;;;;;;;34.28;35.36;100275.41;1723897;83;20916;-83
2021/07/02 06:30:51;;;;;;;12.95;8.15;;;;;;;34.58;35.94;100270.77;1724197;83;20905;-82
2021/07/02 06:33:19;;;;;;;10.88;8.18;;;;;;;34.90;34.96;100269.39;1723144;80;20931;-82
2021/07/02 06:35:48;;;;;;;16.45;9.83;;;;;;;35.17;35.22;100278.84;1716380;83;20889;-83
2021/07/02 06:38:16;;;;;;;14.18;8.60;;;;;;;35.42;35.32;100268.64;1692611;82;21750;-81
2021/07/02 06:40:44;;;;;;;13.38;8.48;;;;;;;35.71;34.52;100268.23;1726455;83;21358;-74
2021/07/02 06:43:11;;;;;;;14.25;9.35;;;;;;;35.94;33.14;100268.84;1724235;83;20948;-75
2021/07/02 06:45:38;;;;;;;11.63;6.55;;;;;;;36.12;33.15;100259.34;1724242;83;21405;-72
2021/07/02 06:48:09;;;;;;;9.18;6.62;;;;;;;36.31;31.68;100265.92;1691544;82;20874;-74
2021/07/02 06:50:56;;;;;;;6.67;5.03;;;;;;;36.55;29.75;100259.91;1666559;81;20892;-77
2021/07/02 06:53:23;;;;;;;5.03;4.28;;;;;;;36.78;27.64;100255.27;1782767;78;20868;-81
2021/07/02 06:55:51;;;;;;;4.97;4.58;;;;;;;36.99;25.77;100256.04;1798616;79;21057;-78
2021/07/02 06:58:18;;;;;;;11.78;5.70;;;;;;;37.15;25.92;100258.77;1799065;79;20860;-77
2021/07/02 07:00:46;;;;;;;6.53;5.20;;;;;;;37.26;26.56;100250.23;1765312;80;20935;-77
2021/07/02 07:03:17;;;;;;;10.35;5.85;;;;;;;37.37;27.18;100248.28;1796130;80;21186;-76
2021/07/02 07:05:44;;;;;;;8.23;6.00;;;;;;;37.49;27.03;100247.42;1798847;79;20903;-77
2021/07/02 07:08:13;;;;;;;9.83;6.33;;;;;;;37.65;28.24;100249.56;1799023;79;20923;-77
2021/07/02 07:10:41;;;;;;;8.03;5.97;;;;;;;37.74;28.18;100246.50;1799522;79;20883;-77
2021/07/02 07:13:12;;;;;;;7.47;6.37;;;;;;;37.82;28.40;100250.58;1798623;79;20848;-77
2021/07/02 07:15:39;;;;;;;7.97;6.60;;;;;;;37.89;29.38;100245.59;1798878;79;21880;-76
2021/07/02 07:18:06;;;;;;;10.00;5.62;;;;;;;37.92;29.12;100243.64;1753474;78;20898;-76
2021/07/02 07:20:37;;;;;;;8.63;6.50;;;;;;;37.97;28.28;100244.72;1697344;80;20958;-77
2021/07/02 07:23:11;;;;;;;8.50;5.95;;;;;;;38.04;28.83;100240.61;1695066;84;21334;-77
2021/07/02 07:25:38;;;;;;;8.58;6.45;;;;;;;38.10;28.17;100249.59;1692795;84;20943;-75
2021/07/02 07:28:06;;;;;;;12.05;6.47;;;;;;;38.20;27.72;100246.78;1698520;84;20904;-76
2021/07/02 07:30:35;;;;;;;7.80;5.92;;;;;;;38.30;28.80;100242.58;1687080;78;20901;-75
2021/07/02 07:33:03;;;;;;;9.73;5.55;;;;;;;38.38;28.36;100229.36;1685564;85;20908;-76
2021/07/02 07:35:33;;;;;;;5.53;4.95;;;;;;;38.48;27.30;100237.53;1724856;79;20933;-76
2021/07/02 07:38:53;;;;;;;8.13;5.58;;;;;;;38.82;26.19;100231.16;1773161;76;24592;-78
2021/07/02 07:41:23;;;;;;;11.68;5.75;;;;;;;38.97;27.24;100234.58;1697318;83;21042;-78
2021/07/02 07:43:50;;;;;;;8.15;5.47;;;;;;;38.97;27.34;100237.89;1697549;83;21989;-78
2021/07/02 07:46:17;;;;;;;11.08;6.12;;;;;;;38.86;26.62;100236.34;1697467;83;20900;-78
2021/07/02 07:48:44;;;;;;;10.32;5.08;;;;;;;38.58;26.78;100240.72;1697916;83;21393;-76
2021/07/02 07:53:57;;;;;;;6.67;5.22;;;;;;;37.73;25.94;100236.66;1611794;87;20989;-76
2021/07/02 07:56:28;;;;;;;6.42;4.85;;;;;;;37.42;26.61;100232.40;1633389;84;21187;-77
2021/07/02 07:58:55;;;;;;;5.58;3.52;;;;;;;37.33;26.58;100230.80;1653305;84;21041;-79
2021/07/02 08:01:30;;;;;;;5.97;3.85;;;;;;;37.28;25.86;100235.73;1661120;83;20955;-75
2021/07/02 08:03:57;;;;;;;8.03;3.92;;;;;;;37.39;25.95;100239.25;1635025;82;20982;-77
2021/07/02 08:06:27;;;;;;;8.68;4.60;;;;;;;37.65;27.00;100241.35;1631716;84;21050;-76
2021/07/02 08:08:56;;;;;;;6.03;3.80;;;;;;;37.95;27.40;100241.73;1620665;84;21550;-78
2021/07/02 08:11:43;;;;;;;8.38;4.30;;;;;;;38.05;25.84;100238.13;1640813;83;21505;-78
2021/07/02 08:14:11;;;;;;;7.50;5.60;;;;;;;38.24;26.44;100236.05;1614565;83;20989;-84
2021/07/02 08:16:38;;;;;;;5.85;4.37;;;;;;;38.46;27.05;100241.08;1646459;84;21411;-78
2021/07/02 08:19:05;;;;;;;6.67;3.42;;;;;;;38.64;26.23;100240.37;1645489;82;21036;-82
2021/07/02 08:21:32;;;;;;;5.15;3.75;;;;;;;38.80;25.74;100248.45;1650066;83;21181;-79
2021/07/02 08:24:00;;;;;;;4.75;4.33;;;;;;;38.82;24.99;100250.36;1639882;82;20868;-78
2021/07/02 08:26:27;;;;;;;4.93;3.27;;;;;;;38.83;24.92;100241.85;1658897;81;20948;-81
2021/07/02 08:31:40;;;;;;;3.92;3.30;;;;;;;38.85;25.24;100237.45;1692116;84;20935;-78
2021/07/02 08:34:07;;;;;;;8.03;3.67;;;;;;;38.94;24.49;100232.44;1699109;79;22532;-78
2021/07/02 08:36:34;;;;;;;8.05;3.42;;;;;;;38.94;24.59;100225.58;1721316;76;20946;-81
2021/07/02 08:39:01;;;;;;;6.30;3.90;;;;;;;38.96;24.93;100219.25;1681370;79;21078;-78
2021/07/02 08:41:28;;;;;;;3.95;3.62;;;;;;;38.96;25.20;100225.30;1696430;79;20867;-74
2021/07/02 08:43:56;;;;;;;5.40;3.33;;;;;;;39.00;25.35;100222.77;1696235;79;20999;-78
2021/07/02 08:46:23;;;;;;;5.40;3.60;;;;;;;39.11;25.22;100225.12;1716018;79;21361;-78
2021/07/02 08:48:51;;;;;;;7.17;3.55;;;;;;;39.18;25.14;100224.77;1718886;79;21010;-80
2021/07/02 08:51:19;;;;;;;6.42;3.47;;;;;;;39.36;25.81;100226.72;1635769;87;20976;-83
2021/07/02 08:53:46;;;;;;;5.28;3.55;;;;;;;39.50;25.26;100217.80;1666458;80;21010;-79
2021/07/02 08:56:13;;;;;;;6.00;4.80;;;;;;;39.61;24.89;100221.22;1684325;80;20955;-76
2021/07/02 08:58:42;;;;;;;4.37;3.40;;;;;;;39.59;24.54;100226.43;1666634;81;21702;-81
2021/07/02 09:01:09;;;;;;;5.67;3.58;;;;;;;39.59;24.32;100228.37;1672941;79;21369;-79
2021/07/02 09:03:38;;;;;;;6.12;3.52;;;;;;;39.65;25.59;100223.08;1728979;81;20939;-78
2021/07/02 09:06:14;;;;;;;7.35;3.58;;;;;;;39.76;25.54;100223.19;1765520;81;20859;-79
2021/07/02 09:09:03;;;;;;;11.00;4.08;;;;;;;39.88;24.91;100221.38;1765732;81;20934;-80
2021/07/02 09:11:34;;;;;;;8.50;3.58;;;;;;;39.97;24.27;100215.47;1763820;81;20918;-72
2021/07/02 09:14:03;;;;;;;6.42;3.62;;;;;;;40.03;24.18;100214.03;1735373;78;20885;-74
2021/07/02 09:16:41;;;;;;;6.67;3.08;;;;;;;40.11;24.87;100219.66;1705980;84;21406;-72
2021/07/02 09:19:24;;;;;;;6.20;3.40;;;;;;;40.18;25.44;100215.16;1705367;84;21039;-72
2021/07/02 09:21:51;;;;;;;15.05;3.22;;;;;;;40.24;25.21;100215.30;1734106;79;21216;-72
2021/07/02 09:24:43;;;;;;;4.58;2.95;;;;;;;40.30;25.57;100208.64;1762302;79;21456;-71
2021/07/02 09:27:30;;;;;;;6.15;3.83;;;;;;;40.34;25.39;100206.93;1756668;81;20895;-71
2021/07/02 09:30:15;;;;;;;5.78;3.20;;;;;;;40.36;25.24;100208.02;1760366;81;20902;-72
2021/07/02 09:32:49;;;;;;;5.72;3.27;;;;;;;40.39;25.98;100207.39;1759942;81;21408;-71
2021/07/02 09:35:17;;;;;;;3.35;2.90;;;;;;;40.37;24.72;100200.01;1760354;81;20925;-72
2021/07/02 09:37:49;;;;;;;7.42;3.20;;;;;;;40.37;24.87;100201.38;1760235;81;21187;-72
2021/07/02 09:40:21;;;;;;;4.12;2.70;;;;;;;40.43;24.70;100201.55;1759996;81;21462;-71
2021/07/02 09:43:11;;;;;;;4.67;2.83;;;;;;;40.48;24.36;100199.27;1760484;81;20835;-73
2021/07/02 09:45:56;;;;;;;4.60;2.85;;;;;;;40.50;24.59;100197.84;1755932;81;21380;-74
2021/07/02 09:48:27;;;;;;;4.67;2.72;;;;;;;40.50;24.26;100199.22;1760284;81;21336;-71
2021/07/02 09:50:58;;;;;;;3.00;2.65;;;;;;;40.50;24.30;100201.16;1756866;79;21315;-74
2021/07/02 09:53:33;;;;;;;6.55;2.30;;;;;;;40.52;24.45;100192.05;1704987;80;21447;-72
2021/07/02 09:56:01;;;;;;;3.47;2.22;;;;;;;40.53;24.18;100194.51;1688383;80;21117;-74
2021/07/02 09:58:37;;;;;;;2.70;2.50;;;;;;;40.58;24.40;100193.03;1713056;80;22648;-76
2021/07/02 10:01:05;;;;;;;3.50;2.75;;;;;;;40.60;24.39;100187.23;1715235;78;20943;-74
2021/07/02 10:03:37;;;;;;;5.67;2.72;;;;;;;40.53;24.36;100182.14;1717753;79;21826;-73
2021/07/02 10:06:05;;;;;;;;;;;;;;;40.52;23.98;100172.24;1726129;79;20941;-76
2021/07/02 10:08:34;;;;;;;4.75;2.30;;;;;;;40.49;24.06;100188.52;1704553;79;20151;-75
2021/07/02 10:11:03;;;;;;;7.20;2.70;;;;;;;40.39;24.52;100182.09;1732069;81;20988;-74
2021/07/02 10:13:34;;;;;;;6.25;2.37;;;;;;;40.36;24.71;100176.41;1743858;82;21474;-74
2021/07/02 10:16:04;;;;;;;3.65;2.22;;;;;;;40.38;24.55;100174.17;1723429;81;21135;-77
2021/07/02 10:18:30;;;;;;;4.50;2.33;;;;;;;40.46;24.57;100176.20;1670913;79;21499;-74
2021/07/02 10:21:03;;;;;;;3.42;2.33;;;;;;;40.51;24.65;100176.13;1710523;84;21343;-75
2021/07/02 10:23:58;;;;;;;2.92;1.92;;;;;;;40.58;24.18;100177.91;1697092;80;20972;-75
2021/07/02 10:26:28;;;;;;;2.30;2.10;;;;;;;40.60;24.10;100183.92;1774807;79;21641;-75
2021/07/02 10:28:56;;;;;;;4.45;2.67;;;;;;;40.60;24.21;100174.87;1740583;80;21515;-75
2021/07/02 10:31:24;;;;;;;2.27;2.02;;;;;;;40.59;23.97;100169.91;1682382;85;21398;-75
2021/07/02 10:33:57;;;;;;;6.03;2.35;;;;;;;40.52;25.13;100163.19;1729407;80;21121;-75
2021/07/02 10:36:24;;;;;;;3.27;1.90;;;;;;;40.47;24.78;100159.17;1726178;81;20919;-75
2021/07/02 10:38:52;;;;;;;5.00;2.47;;;;;;;40.47;24.49;100167.42;1712815;78;21168;-72
2021/07/02 10:41:22;;;;;;;7.70;1.80;;;;;;;40.44;24.67;100165.26;1758409;79;22005;-72
2021/07/02 10:44:12;;;;;;;4.33;2.10;;;;;;;40.42;24.69;100158.68;1747948;80;21055;-73
2021/07/02 10:46:51;;;;;;;5.12;1.90;;;;;;;40.43;24.64;100158.95;1662358;82;21544;31
2021/07/02 10:49:18;;;;;;;5.08;1.80;;;;;;;40.47;24.51;100148.18;1749001;82;20904;-73
2021/07/02 10:51:53;;;;;;;7.85;2.17;;;;;;;40.50;24.99;100153.06;1694879;79;21446;-73
2021/07/02 10:54:28;;;;;;;3.40;2.30;;;;;;;40.54;24.79;100148.58;1707742;80;21076;-74
2021/07/02 10:59:57;;;;;;;5.33;3.15;;;;;;;40.54;24.16;100152.70;1740584;79;20898;-74
2021/07/02 11:02:25;;;;;;;2.20;2.10;;;;;;;40.48;23.78;100149.80;1696248;79;21086;-73
2021/07/02 11:04:59;;;;;;;7.12;2.17;;;;;;;40.42;24.44;100157.30;1731704;80;20927;-73
2021/07/02 11:07:32;;;;;;;3.45;2.05;;;;;;;40.36;24.11;100153.85;1697629;80;21738;-73
2021/07/02 11:10:09;;;;;;;4.25;1.82;;;;;;;40.26;24.84;100156.74;1668336;81;21470;-72
2021/07/02 11:12:55;;;;;;;2.85;2.15;;;;;;;40.19;25.12;100153.58;1709221;80;21006;-72
2021/07/02 11:15:21;;;;;;;4.42;2.40;;;;;;;40.11;25.34;100155.10;1735007;80;20932;-73
2021/07/02 11:18:12;;;;;;;2.35;2.05;;;;;;;39.99;24.99;100147.31;1750343;80;20898;-75
2021/07/02 11:20:40;;;;;;;4.25;2.67;;;;;;;39.89;25.29;100154.91;1745482;81;21112;-73
2021/07/02 11:23:19;;;;;;;2.77;2.37;;;;;;;39.75;25.41;100148.77;1724558;80;21087;-78
2021/07/02 11:28:41;;;;;;;6.17;2.12;;;;;;;39.44;26.32;100145.68;1730778;80;20885;-74
2021/07/02 11:31:12;;;;;;;3.42;2.10;;;;;;;39.26;27.11;100141.79;1744851;79;20954;31
2021/07/02 11:33:40;;;;;;;3.40;2.17;;;;;;;38.97;27.57;100146.83;1707102;78;21140;-77
2021/07/02 11:36:10;;;;;;;10.08;2.45;;;;;;;38.65;27.84;100141.17;1698770;79;20907;-78
2021/07/02 11:38:52;;;;;;;5.83;2.75;;;;;;;38.35;28.03;100135.70;1701868;78;20960;-74
2021/07/02 11:41:30;;;;;;;6.78;3.77;;;;;;;38.06;28.97;100141.72;1683758;79;20975;-76
2021/07/02 11:43:58;;;;;;;4.67;2.87;;;;;;;37.72;28.47;100135.67;1736785;79;20955;-78
2021/07/02 11:46:25;;;;;;;2.47;2.33;;;;;;;37.40;28.13;100137.48;1751989;80;21055;-77
2021/07/02 11:48:54;;;;;;;4.87;2.20;;;;;;;37.10;28.48;100130.53;1708652;80;20925;-75